Terminal Aerodrome Forecast
Issued by NWS Cleveland, OH

Home | Current Version | Previous Version | Text Only | Print | Product List | Glossary Off
Versions: 1 2 3 4 5 6 7 8 9 10 11 12 13 14 15 16 17 18 19 20 21

000
FTUS41 KCLE 131000 AAA
TAFMFD
TAF AMD
KMFD 131011Z 1310/1406 25005KT P6SM OVC035
     FM131600 32008KT P6SM BKN035
     FM131900 33009KT P6SM BKN050
     FM132200 36005KT P6SM SCT050=

USA.gov is the U.S. government's official web portal to all federal, state and local government web resources and services.